Time;durP1;ratioP1;P1;durP2;ratioP2;P2;SDS_P1;SDS_P2;PMS_P1;PMS_P2;Temp;Humidity;BMP_temperature;BMP_pressure;BME280_temperature;BME280_humidity;BME280_pressure;Samples;Min_cycle;Max_cycle;Signal;HPM_P1;HPM_P2
2022/06/04 00:00:15;;;;;;;;;;;;;;;15.73;52.10;100499.75;106178;1276;97808;-69
2022/06/04 00:03:04;;;;;;;;;;;;;;;15.69;52.26;100494.48;106316;1276;97852;-68
2022/06/04 00:05:33;;;;;;;;;;;;;;;15.67;52.27;100494.09;106136;1276;112554;-69
2022/06/04 00:08:02;;;;;;;;;;;;;;;15.64;52.50;100493.52;106060;1276;124432;-69
2022/06/04 00:16:04;;;;;;;;;;;;;;;15.59;52.61;100479.76;106132;1276;97839;-69
2022/06/04 00:18:31;;;;;;;;;;;;;;;15.57;52.49;100479.96;106642;1276;112612;-69
2022/06/04 00:20:59;;;;;;;;;;;;;;;15.57;52.76;100481.94;106104;1276;124427;-69
2022/06/04 00:23:27;;;;;;;;;;;;;;;15.56;52.76;100474.62;106322;1276;109004;-69
2022/06/04 00:25:56;;;;;;;;;;;;;;;15.54;52.69;100472.45;106050;1276;124477;-69
2022/06/04 00:28:25;;;;;;;;;;;;;;;15.53;52.78;100465.14;106224;1276;98083;-69
2022/06/04 00:30:53;;;;;;;;;;;;;;;15.51;52.69;100463.66;106074;1276;124525;-68
2022/06/04 00:33:21;;;;;;;;;;;;;;;15.49;52.88;100459.54;106166;1276;108222;-68
2022/06/04 00:35:51;;;;;;;;;;;;;;;15.47;52.83;100461.39;106197;1276;108859;-69
2022/06/04 00:38:20;;;;;;;;;;;;;;;15.45;52.82;100463.09;106077;1276;124654;-69
2022/06/04 00:40:50;;;;;;;;;;;;;;;15.42;52.97;100457.93;106177;1276;97811;-69
2022/06/04 00:43:18;;;;;;;;;;;;;;;15.40;53.01;100459.24;106481;1276;124394;-68
2022/06/04 00:46:06;;;;;;;;;;;;;;;15.39;53.14;100461.26;106141;1276;109454;-69
2022/06/04 00:48:34;;;;;;;;;;;;;;;15.38;53.16;100458.48;106149;1276;108792;-69
2022/06/04 00:51:03;;;;;;;;;;;;;;;15.37;53.31;100454.17;106157;1276;97935;-68
2022/06/04 00:53:31;;;;;;;;;;;;;;;15.35;53.52;100453.39;106205;1276;97942;-68
2022/06/04 00:56:06;;;;;;;;;;;;;;;15.35;53.55;100450.07;106360;1276;124388;-69
2022/06/04 00:58:48;;;;;;;;;;;;;;;15.34;53.64;100446.94;106150;1276;108944;-70
2022/06/04 01:01:20;;;;;;;;;;;;;;;15.36;53.68;100450.73;105976;1276;124695;-69
2022/06/04 01:03:56;;;;;;;;;;;;;;;15.37;53.68;100445.41;106180;1276;98329;-69
2022/06/04 01:06:29;;;;;;;;;;;;;;;15.37;53.71;100443.81;106161;1276;97851;-69
2022/06/04 01:09:08;;;;;;;;;;;;;;;15.37;53.64;100443.80;106068;1276;124268;-69
2022/06/04 01:14:31;;;;;;;;;;;;;;;15.37;53.57;100440.15;106044;1276;124675;-69
2022/06/04 01:17:04;;;;;;;;;;;;;;;15.36;53.70;100432.31;106151;1276;97836;-69
2022/06/04 01:19:42;;;;;;;;;;;;;;;15.36;53.65;100430.02;106206;1276;124775;-70
2022/06/04 01:22:20;;;;;;;;;;;;;;;15.36;53.38;100426.70;106194;1276;112031;-68
2022/06/04 01:24:57;;;;;;;;;;;;;;;15.37;53.34;100421.40;106106;1276;124640;-68
2022/06/04 01:27:27;;;;;;;;;;;;;;;15.37;53.46;100418.59;106192;1274;108891;-68
2022/06/04 01:29:58;;;;;;;;;;;;;;;15.39;53.34;100419.55;106222;1276;97822;-68
2022/06/04 01:32:28;;;;;;;;;;;;;;;15.39;53.14;100419.73;106124;1276;125400;-69
2022/06/04 01:35:00;;;;;;;;;;;;;;;15.39;53.28;100410.81;106178;1276;112559;-69
2022/06/04 01:37:31;;;;;;;;;;;;;;;15.39;53.06;100415.35;106103;1276;124441;-69
2022/06/04 01:42:49;;;;;;;;;;;;;;;15.39;53.06;100410.06;106149;1276;124609;-69
2022/06/04 01:45:19;;;;;;;;;;;;;;;15.38;52.90;100414.70;106461;1276;98034;-69
2022/06/04 01:47:48;;;;;;;;;;;;;;;15.38;52.94;100413.47;106158;1276;113352;-68
2022/06/04 01:50:17;;;;;;;;;;;;;;;15.37;52.81;100406.52;106082;1276;124552;-68
2022/06/04 01:52:47;;;;;;;;;;;;;;;15.37;52.80;100412.98;106180;1276;109186;-68
2022/06/04 01:55:16;;;;;;;;;;;;;;;15.37;52.68;100416.35;106011;1276;124853;-68
2022/06/04 01:57:47;;;;;;;;;;;;;;;15.35;52.77;100416.77;106200;1276;97833;-69
2022/06/04 02:00:17;;;;;;;;;;;;;;;15.33;52.69;100417.42;106289;1276;112397;-68
2022/06/04 02:02:46;;;;;;;;;;;;;;;15.31;52.85;100420.83;106467;1276;125413;-67
2022/06/04 02:05:16;;;;;;;;;;;;;;;15.29;52.82;100412.19;106209;1276;107585;-68
2022/06/04 02:07:47;;;;;;;;;;;;;;;15.27;52.88;100401.61;106074;1276;124324;-68
2022/06/04 02:10:18;;;;;;;;;;;;;;;15.24;52.95;100390.70;106185;1276;97845;-69
2022/06/04 02:12:46;;;;;;;;;;;;;;;15.22;53.16;100385.04;106108;1276;124545;-68
2022/06/04 02:15:15;;;;;;;;;;;;;;;15.19;52.97;100380.05;107642;1276;109695;-69
2022/06/04 02:17:44;;;;;;;;;;;;;;;15.18;53.01;100379.93;107125;1276;107797;-69
2022/06/04 02:20:13;;;;;;;;;;;;;;;15.19;52.96;100373.27;106130;1276;124542;-68
2022/06/04 02:22:41;;;;;;;;;;;;;;;15.19;52.99;100369.58;106239;1276;97854;-69
2022/06/04 02:25:11;;;;;;;;;;;;;;;15.20;52.95;100371.47;106127;1276;125105;-68
2022/06/04 02:27:39;;;;;;;;;;;;;;;15.21;52.92;100370.36;107286;1275;107809;-68
2022/06/04 02:30:10;;;;;;;;;;;;;;;15.22;52.93;100373.42;106186;1276;109003;-68
2022/06/04 02:32:40;;;;;;;;;;;;;;;15.24;52.88;100372.64;106585;1276;124444;-68
2022/06/04 02:35:12;;;;;;;;;;;;;;;15.26;52.89;100370.27;106230;1276;97840;-69
2022/06/04 02:37:44;;;;;;;;;;;;;;;15.28;52.85;100366.70;106110;1276;125132;-68
2022/06/04 02:40:14;;;;;;;;;;;;;;;15.29;52.79;100359.11;106202;1276;107545;-68
2022/06/04 02:42:45;;;;;;;;;;;;;;;15.30;52.77;100356.59;106128;1276;124823;-69
2022/06/04 02:45:14;;;;;;;;;;;;;;;15.31;52.74;100352.86;106200;1276;98198;-68
2022/06/04 02:47:44;;;;;;;;;;;;;;;15.31;52.95;100353.20;106577;1276;97833;-69
2022/06/04 02:50:15;;;;;;;;;;;;;;;15.32;52.98;100354.93;106885;1276;124954;-69
2022/06/04 02:52:44;;;;;;;;;;;;;;;15.32;53.03;100354.58;106224;1276;108107;-69
2022/06/04 02:55:15;;;;;;;;;;;;;;;15.31;53.18;100350.91;106094;1276;125563;-68
2022/06/04 02:57:44;;;;;;;;;;;;;;;15.31;53.16;100348.66;106316;1276;98631;-69
2022/06/04 03:00:15;;;;;;;;;;;;;;;15.33;53.09;100349.45;106432;1276;97871;-69
2022/06/04 03:02:44;;;;;;;;;;;;;;;15.34;53.15;100342.89;106471;1276;124300;-69
2022/06/04 03:05:13;;;;;;;;;;;;;;;15.35;53.16;100341.98;106206;1276;109074;-69
2022/06/04 03:07:43;;;;;;;;;;;;;;;15.35;53.11;100343.00;107070;1275;124550;-69
2022/06/04 03:10:12;;;;;;;;;;;;;;;15.37;53.03;100343.81;106200;1276;97850;-69
2022/06/04 03:12:40;;;;;;;;;;;;;;;15.40;53.23;100348.73;106050;1276;124945;-69
2022/06/04 03:15:10;;;;;;;;;;;;;;;15.41;53.08;100354.42;106194;1276;110971;-69
2022/06/04 03:17:38;;;;;;;;;;;;;;;15.43;53.17;100355.06;106331;1276;105933;-69
2022/06/04 03:20:07;;;;;;;;;;;;;;;15.46;53.27;100354.74;106111;1276;124502;-69
2022/06/04 03:22:35;;;;;;;;;;;;;;;15.49;53.34;100352.68;106235;1276;97879;-69
2022/06/04 03:25:04;;;;;;;;;;;;;;;15.50;53.46;100348.55;106114;1276;124994;-69
2022/06/04 03:27:32;;;;;;;;;;;;;;;15.54;53.51;100346.98;106729;1276;111485;-69
2022/06/04 03:29:59;;;;;;;;;;;;;;;15.56;53.51;100340.73;106187;1276;108368;-68
2022/06/04 03:32:27;;;;;;;;;;;;;;;15.58;53.67;100335.70;106090;1276;124892;-70
2022/06/04 03:34:55;;;;;;;;;;;;;;;15.62;53.64;100336.41;106141;1276;97821;-69
2022/06/04 03:37:23;;;;;;;;;;;;;;;15.65;53.57;100341.88;106055;1276;126230;-68
2022/06/04 03:39:50;;;;;;;;;;;;;;;15.66;53.80;100337.96;106174;1276;112121;-69
2022/06/04 03:42:18;;;;;;;;;;;;;;;15.67;53.73;100340.02;106227;1276;109225;-70
2022/06/04 03:44:47;;;;;;;;;;;;;;;15.68;53.78;100334.71;106039;1276;125377;-68
2022/06/04 03:47:16;;;;;;;;;;;;;;;15.69;53.62;100337.09;106160;1276;97915;-70
2022/06/04 03:49:44;;;;;;;;;;;;;;;15.72;53.77;100337.14;106173;1276;126415;-70
2022/06/04 03:52:12;;;;;;;;;;;;;;;15.75;53.66;100335.91;106156;1276;112709;-69
2022/06/04 03:54:52;;;;;;;;;;;;;;;15.79;53.64;100336.78;106101;1276;124858;-69
2022/06/04 03:57:39;;;;;;;;;;;;;;;15.83;53.58;100327.11;106110;1276;108766;-68
2022/06/04 04:00:08;;;;;;;;;;;;;;;15.87;53.67;100322.64;106160;1276;97817;-68
2022/06/04 04:02:39;;;;;;;;;;;;;;;15.93;53.72;100322.00;106301;1275;124162;-68
2022/06/04 04:05:09;;;;;;;;;;;;;;;15.96;53.72;100317.42;106221;1276;112063;-70
2022/06/04 04:07:37;;;;;;;;;;;;;;;16.04;53.60;100317.74;106228;1276;124614;-69
2022/06/04 04:10:05;;;;;;;;;;;;;;;16.14;53.44;100316.45;106169;1276;109139;-69
2022/06/04 04:12:33;;;;;;;;;;;;;;;16.24;53.33;100311.33;106446;1276;98304;-69
2022/06/04 04:15:01;;;;;;;;;;;;;;;16.36;53.15;100310.71;106275;1276;97839;-69
2022/06/04 04:17:28;;;;;;;;;;;;;;;16.47;52.97;100305.02;106205;1276;112586;-69
2022/06/04 04:19:57;;;;;;;;;;;;;;;16.57;52.79;100299.00;106089;1276;124492;-70
2022/06/04 04:22:25;;;;;;;;;;;;;;;16.66;52.75;100292.34;106182;1276;108285;-69
2022/06/04 04:24:54;;;;;;;;;;;;;;;16.73;52.52;100288.65;106058;1276;124529;-69
2022/06/04 04:27:21;;;;;;;;;;;;;;;16.80;52.38;100288.23;106219;1276;97807;-69
2022/06/04 04:29:49;;;;;;;;;;;;;;;16.90;52.27;100293.82;106089;1276;112608;-69
2022/06/04 04:32:16;;;;;;;;;;;;;;;17.00;52.18;100294.27;106121;1276;126488;-70
2022/06/04 04:34:44;;;;;;;;;;;;;;;17.09;51.92;100300.27;106157;1276;108806;-69
2022/06/04 04:37:11;;;;;;;;;;;;;;;17.19;51.85;100306.34;106077;1276;125045;-68
2022/06/04 04:39:39;;;;;;;;;;;;;;;17.29;51.73;100313.38;106193;1276;97818;-69
2022/06/04 04:42:07;;;;;;;;;;;;;;;17.38;51.62;100318.09;106201;1276;112436;-70
2022/06/04 04:44:35;;;;;;;;;;;;;;;17.45;51.46;100319.94;106086;1276;124486;-69
2022/06/04 04:47:02;;;;;;;;;;;;;;;17.52;51.31;100326.39;106214;1276;107146;-68
2022/06/04 04:49:30;;;;;;;;;;;;;;;17.55;51.07;100324.27;106040;1276;124455;-69
2022/06/04 04:51:59;;;;;;;;;;;;;;;17.59;51.03;100319.85;106195;1276;97814;-69
2022/06/04 04:54:26;;;;;;;;;;;;;;;17.65;50.88;100311.73;106189;1276;110747;-68
2022/06/04 04:56:54;;;;;;;;;;;;;;;17.71;50.91;100309.79;106055;1276;124874;-69
2022/06/04 04:59:21;;;;;;;;;;;;;;;17.80;50.81;100300.13;106167;1276;109008;-68
2022/06/04 05:01:49;;;;;;;;;;;;;;;17.87;50.65;100295.98;106115;1276;124727;-68
2022/06/04 05:04:17;;;;;;;;;;;;;;;17.96;50.71;100293.66;106453;1276;97868;-69
2022/06/04 05:06:44;;;;;;;;;;;;;;;18.09;50.36;100292.64;106040;1276;125346;-69
2022/06/04 05:09:12;;;;;;;;;;;;;;;18.18;50.13;100293.05;106171;1276;109135;-69
2022/06/04 05:11:40;;;;;;;;;;;;;;;18.25;49.93;100296.44;106126;1276;108282;-69
2022/06/04 05:14:08;;;;;;;;;;;;;;;18.34;49.90;100291.77;106065;1276;125331;-69
2022/06/04 05:16:37;;;;;;;;;;;;;;;18.50;49.80;100285.65;106234;1276;97854;-68
2022/06/04 05:19:05;;;;;;;;;;;;;;;18.69;49.44;100286.95;106679;1276;124423;-69
2022/06/04 05:21:38;;;;;;;;;;;;;;;18.87;49.10;100283.83;106167;1276;108311;-68
2022/06/04 05:24:06;;;;;;;;;;;;;;;19.05;48.92;100285.10;107568;1276;107848;-69
2022/06/04 05:26:34;;;;;;;;;;;;;;;19.23;48.51;100288.58;106202;1277;124313;-69
2022/06/04 05:29:01;;;;;;;;;;;;;;;19.43;48.16;100293.63;106208;1276;97712;-69
2022/06/04 05:31:29;;;;;;;;;;;;;;;19.54;47.83;100288.63;106083;1276;124172;-68
2022/06/04 05:33:57;;;;;;;;;;;;;;;19.65;47.70;100291.79;106167;1276;109027;-68
2022/06/04 05:36:24;;;;;;;;;;;;;;;19.80;47.21;100297.92;106158;1276;108326;-68
2022/06/04 05:38:52;;;;;;;;;;;;;;;19.93;47.20;100297.77;106146;1276;124791;-69
2022/06/04 05:41:19;;;;;;;;;;;;;;;20.12;46.85;100293.39;106176;1276;98209;-68
2022/06/04 05:43:47;;;;;;;;;;;;;;;20.31;46.54;100297.02;106058;1276;124359;-68
2022/06/04 05:46:15;;;;;;;;;;;;;;;20.48;46.16;100290.97;106209;1276;109298;-68
2022/06/04 05:48:44;;;;;;;;;;;;;;;20.89;46.08;100291.33;106033;1276;124578;-69
2022/06/04 05:51:13;;;;;;;;;;;;;;;21.78;45.28;100296.23;106166;1276;97850;-69
2022/06/04 05:53:41;;;;;;;;;;;;;;;23.26;43.41;100289.74;106189;1276;97837;-69
2022/06/04 05:56:12;;;;;;;;;;;;;;;24.93;41.12;100288.75;106105;1276;124202;-68
2022/06/04 05:58:40;;;;;;;;;;;;;;;26.73;39.50;100282.11;106185;1276;107774;-70
2022/06/04 06:01:08;;;;;;;;;;;;;;;28.27;37.53;100278.20;106125;1276;124603;-68
2022/06/04 06:03:35;;;;;;;;;;;;;;;29.69;35.69;100281.02;106140;1276;97837;-68
2022/06/04 06:06:04;;;;;;;;;;;;;;;30.78;33.96;100276.46;106165;1276;97821;-69
2022/06/04 06:08:52;;;;;;;;;;;;;;;32.02;32.25;100268.66;106046;1276;124000;-69
2022/06/04 06:11:20;;;;;;;;;;;;;;;33.12;30.87;100268.20;106177;1276;108548;-68
2022/06/04 06:13:48;;;;;;;;;;;;;;;34.16;29.67;100267.00;106067;1276;124475;-68
2022/06/04 06:16:17;;;;;;;;;;;;;;;35.02;28.51;100263.20;106119;1276;97912;-68
2022/06/04 06:18:45;;;;;;;;;;;;;;;35.84;27.34;100268.48;106048;1276;125305;-67
2022/06/04 06:21:14;;;;;;;;;;;;;;;36.63;26.59;100268.18;107615;1276;112031;-67
2022/06/04 06:23:43;;;;;;;;;;;;;;;37.46;25.65;100271.14;106175;1276;108853;-67
2022/06/04 06:26:12;;;;;;;;;;;;;;;38.11;24.95;100275.95;106074;1276;124906;-67
2022/06/04 06:28:41;;;;;;;;;;;;;;;38.70;24.03;100276.39;106823;1276;97930;-68
2022/06/04 06:31:09;;;;;;;;;;;;;;;39.51;23.25;100271.05;106092;1276;124597;-67
2022/06/04 06:33:37;;;;;;;;;;;;;;;40.19;22.88;100268.03;106166;1276;112515;-67
2022/06/04 06:36:06;;;;;;;;;;;;;;;40.79;22.19;100263.82;106155;1276;109730;-68
2022/06/04 06:38:34;;;;;;;;;;;;;;;41.38;21.67;100264.97;106336;1276;124732;-68
2022/06/04 06:41:03;;;;;;;;;;;;;;;41.85;20.84;100266.91;106137;1276;97973;-68
2022/06/04 06:43:33;;;;;;;;;;;;;;;42.26;19.94;100265.77;106043;1276;124258;-68
2022/06/04 06:46:05;;;;;;;;;;;;;;;42.61;19.56;100261.62;106166;1276;112366;-66
2022/06/04 06:48:33;;;;;;;;;;;;;;;42.77;19.17;100261.60;106132;1276;108209;-67
2022/06/04 06:51:05;;;;;;;;;;;;;;;43.05;18.80;100262.36;106085;1276;109216;-69
2022/06/04 06:53:33;;;;;;;;;;;;;;;43.40;18.55;100254.98;106128;1276;97831;-67
2022/06/04 06:56:08;;;;;;;;;;;;;;;43.82;18.12;100250.44;106068;1276;124342;-67
2022/06/04 06:58:35;;;;;;;;;;;;;;;43.87;17.80;100246.66;106023;1277;112745;-68
2022/06/04 07:01:04;;;;;;;;;;;;;;;43.24;17.87;100253.82;106100;1276;124532;-68
2022/06/04 07:03:32;;;;;;;;;;;;;;;42.65;18.22;100258.31;106452;1276;108257;-67
2022/06/04 07:06:00;;;;;;;;;;;;;;;42.95;18.33;100260.50;106133;1277;97841;-68
2022/06/04 07:08:27;;;;;;;;;;;;;;;43.52;17.87;100261.59;106558;1276;124739;-68
2022/06/04 07:10:55;;;;;;;;;;;;;;;43.70;17.49;100263.02;106143;1276;111954;-67
2022/06/04 07:13:22;;;;;;;;;;;;;;;43.18;17.54;100265.76;106041;1276;124747;-69
2022/06/04 07:15:50;;;;;;;;;;;;;;;42.22;17.51;100265.16;106142;1276;109128;-69
2022/06/04 07:18:18;;;;;;;;;;;;;;;41.14;17.72;100267.48;106065;1277;98211;-68
2022/06/04 07:20:46;;;;;;;;;;;;;;;40.19;18.32;100262.70;106053;1277;124748;-68
2022/06/04 07:23:14;;;;;;;;;;;;;;;39.32;18.72;100261.22;106182;1276;112752;-67
2022/06/04 07:25:44;;;;;;;;;;;;;;;38.38;18.69;100265.48;106078;1277;124490;-67
2022/06/04 07:28:13;;;;;;;;;;;;;;;37.29;19.81;100261.02;106179;1277;108937;-68
2022/06/04 07:30:40;;;;;;;;;;;;;;;36.31;20.49;100263.44;106119;1277;124675;-67
2022/06/04 07:33:08;;;;;;;;;;;;;;;35.38;21.29;100262.88;106202;1277;97961;-68
2022/06/04 07:35:36;;;;;;;;;;;;;;;34.55;22.22;100270.06;106207;1276;111787;-68
2022/06/04 07:38:03;;;;;;;;;;;;;;;33.88;22.73;100270.80;106146;1278;124410;-67
2022/06/04 07:40:31;;;;;;;;;;;;;;;33.42;23.28;100270.30;106150;1277;108440;-68
2022/06/04 07:42:58;;;;;;;;;;;;;;;33.16;23.78;100273.27;106088;1277;124559;-67
2022/06/04 07:45:26;;;;;;;;;;;;;;;33.05;24.00;100271.98;106171;1277;97845;-68
2022/06/04 07:47:53;;;;;;;;;;;;;;;33.07;24.20;100271.09;106141;1277;113037;-68
2022/06/04 07:50:21;;;;;;;;;;;;;;;33.15;24.40;100271.77;106129;1278;124478;-68
2022/06/04 07:52:49;;;;;;;;;;;;;;;33.17;24.02;100272.06;106206;1277;109216;-68
2022/06/04 07:55:17;;;;;;;;;;;;;;;33.21;24.46;100276.73;106086;1278;124550;-67
2022/06/04 07:57:45;;;;;;;;;;;;;;;33.38;24.68;100269.94;106146;1277;97851;-67
2022/06/04 08:00:13;;;;;;;;;;;;;;;33.54;24.77;100268.39;106200;1277;112685;-69
2022/06/04 08:02:42;;;;;;;;;;;;;;;33.64;24.31;100268.54;106491;1277;126063;-68
2022/06/04 08:05:10;;;;;;;;;;;;;;;33.75;24.66;100266.06;106084;1278;108493;-67
2022/06/04 08:07:37;;;;;;;;;;;;;;;33.83;24.71;100267.77;106098;1277;124611;-68
2022/06/04 08:10:08;;;;;;;;;;;;;;;33.73;24.52;100266.17;106160;1276;97916;-67
2022/06/04 08:12:40;;;;;;;;;;;;;;;33.35;24.58;100261.43;106135;1277;124441;-68
2022/06/04 08:15:09;;;;;;;;;;;;;;;32.95;25.11;100265.65;106523;1277;108983;-69
2022/06/04 08:17:37;;;;;;;;;;;;;;;32.53;25.16;100266.81;106277;1277;108982;-68
2022/06/04 08:20:05;;;;;;;;;;;;;;;32.07;25.61;100264.79;106062;1277;124538;-68
2022/06/04 08:22:33;;;;;;;;;;;;;;;31.52;25.81;100265.29;107268;1277;95651;-68
2022/06/04 08:25:01;;;;;;;;;;;;;;;31.03;26.36;100265.29;106054;1277;124387;-69
2022/06/04 08:27:28;;;;;;;;;;;;;;;30.61;27.15;100261.55;106160;1277;108366;-69
2022/06/04 08:29:56;;;;;;;;;;;;;;;30.16;27.66;100268.13;106085;1277;107960;-70
2022/06/04 08:32:26;;;;;;;;;;;;;;;29.76;27.92;100265.70;106010;1277;124557;-68
2022/06/04 08:34:54;;;;;;;;;;;;;;;29.32;28.38;100262.35;106087;1278;97840;-67
2022/06/04 08:37:22;;;;;;;;;;;;;;;28.95;28.89;100261.95;106067;1278;124869;-68
2022/06/04 08:39:49;;;;;;;;;;;;;;;28.69;29.30;100261.14;106500;1277;108966;-68
2022/06/04 08:42:23;;;;;;;;;;;;;;;28.40;29.74;100262.19;106116;1277;108953;-68
2022/06/04 08:44:52;;;;;;;;;;;;;;;28.11;29.94;100265.28;106022;1278;124697;-68
2022/06/04 08:47:23;;;;;;;;;;;;;;;27.81;30.28;100268.62;106216;1277;97915;-69
2022/06/04 08:49:53;;;;;;;;;;;;;;;27.50;30.78;100272.36;106071;1277;126201;-67
2022/06/04 08:52:23;;;;;;;;;;;;;;;27.24;31.24;100271.34;106150;1277;108946;-68
2022/06/04 08:57:42;;;;;;;;;;;;;;;26.72;31.76;100273.67;106195;1277;97851;-67
2022/06/04 09:00:15;;;;;;;;;;;;;;;26.46;32.37;100270.27;106455;1276;97934;-68
2022/06/04 09:02:53;;;;;;;;;;;;;;;26.21;33.13;100274.86;106111;1277;126008;-68
2022/06/04 09:05:25;;;;;;;;;;;;;;;26.03;33.41;100274.02;106163;1277;108197;-68
2022/06/04 09:07:59;;;;;;;;;;;;;;;25.86;33.69;100267.98;106468;1275;126013;-68
2022/06/04 09:10:30;;;;;;;;;;;;;;;25.69;33.75;100266.67;106165;1277;98407;-68
2022/06/04 09:12:59;;;;;;;;;;;;;;;25.54;34.16;100263.84;106494;1276;124634;-68
2022/06/04 09:15:31;;;;;;;;;;;;;;;25.42;34.60;100266.81;106204;1276;112414;-69
2022/06/04 09:18:04;;;;;;;;;;;;;;;25.26;35.04;100261.67;106149;1277;109412;-69
2022/06/04 09:20:34;;;;;;;;;;;;;;;25.20;35.38;100258.70;106249;1276;124500;-68
2022/06/04 09:23:05;;;;;;;;;;;;;;;25.16;35.72;100262.98;106178;1277;97936;-67
2022/06/04 09:25:38;;;;;;;;;;;;;;;25.09;36.05;100260.77;106227;1276;125255;-67
2022/06/04 09:28:13;;;;;;;;;;;;;;;25.05;36.21;100262.04;106154;1277;112443;-67
2022/06/04 09:30:41;;;;;;;;;;;;;;;25.01;36.28;100263.87;106693;1276;124583;-68
2022/06/04 09:33:29;;;;;;;;;;;;;;;24.96;36.92;100264.29;106102;1277;108361;-68
2022/06/04 09:35:57;;;;;;;;;;;;;;;24.88;37.37;100269.62;106172;1277;98503;-67
2022/06/04 09:38:26;;;;;;;;;;;;;;;24.79;37.28;100270.61;106730;1276;126301;-67
2022/06/04 09:40:58;;;;;;;;;;;;;;;24.70;37.45;100270.73;106151;1276;112268;-69
2022/06/04 09:43:26;;;;;;;;;;;;;;;24.62;37.49;100276.60;106044;1277;125893;-66
2022/06/04 09:46:06;;;;;;;;;;;;;;;24.57;37.98;100274.81;106302;1276;108972;-67
2022/06/04 09:48:35;;;;;;;;;;;;;;;24.54;38.42;100276.44;106140;1277;97842;-66
2022/06/04 09:51:04;;;;;;;;;;;;;;;24.51;38.63;100281.33;106405;1276;97861;-69
2022/06/04 09:53:33;;;;;;;;;;;;;;;24.49;38.52;100278.20;106188;1277;110465;-69
2022/06/04 09:56:06;;;;;;;;;;;;;;;24.46;38.67;100282.21;106080;1276;124498;-69
2022/06/04 09:58:35;;;;;;;;;;;;;;;24.41;38.91;100287.42;106889;1276;108969;-69
2022/06/04 10:01:05;;;;;;;;;;;;;;;24.38;39.26;100288.05;106054;1276;124638;-68
2022/06/04 10:03:34;;;;;;;;;;;;;;;24.33;39.19;100285.95;106171;1276;97819;-67
2022/06/04 10:06:05;;;;;;;;;;;;;;;24.31;39.36;100290.42;106193;1276;112687;-68
2022/06/04 10:09:55;;;;;;;;;;;;;;;24.30;39.44;100282.23;106070;1277;124370;-67
2022/06/04 10:11:21;;;;;;;;;;;;;;;24.29;39.69;100284.63;106163;1276;109212;-68
2022/06/04 10:13:50;;;;;;;;;;;;;;;24.30;40.08;100290.40;106055;1276;124341;-68
2022/06/04 10:16:19;;;;;;;;;;;;;;;24.29;39.75;100285.27;106156;1276;98475;-69
2022/06/04 10:18:58;;;;;;;;;;;;;;;24.28;39.90;100288.60;106078;1276;124541;-68
2022/06/04 10:21:28;;;;;;;;;;;;;;;24.25;40.04;100286.38;106358;1276;107754;-68
2022/06/04 10:23:57;;;;;;;;;;;;;;;24.27;39.69;100289.01;106109;1276;109121;-68
2022/06/04 10:26:42;;;;;;;;;;;;;;;24.30;39.46;100285.35;106034;1276;124857;-68
2022/06/04 10:29:18;;;;;;;;;;;;;;;24.35;39.40;100288.66;106187;1276;97857;-68
2022/06/04 10:31:49;;;;;;;;;;;;;;;24.39;39.24;100292.56;106035;1276;124411;-68
2022/06/04 10:34:24;;;;;;;;;;;;;;;24.39;39.13;100291.80;106144;1276;109219;-69
2022/06/04 10:36:56;;;;;;;;;;;;;;;24.35;39.69;100296.30;106774;1276;124636;-68
2022/06/04 10:39:32;;;;;;;;;;;;;;;24.16;40.20;100298.34;106224;1276;97947;-68
2022/06/04 10:42:03;;;;;;;;;;;;;;;23.97;40.80;100301.61;106151;1276;97846;-68
2022/06/04 10:44:39;;;;;;;;;;;;;;;23.72;41.38;100301.79;105921;1276;210699;-67
2022/06/04 10:47:12;;;;;;;;;;;;;;;23.59;42.13;100300.83;106171;1276;108846;-68
2022/06/04 10:49:50;;;;;;;;;;;;;;;23.50;43.03;100300.67;106025;1276;124431;-67
2022/06/04 10:52:24;;;;;;;;;;;;;;;23.38;43.78;100302.38;106135;1276;97896;-66
2022/06/04 10:55:00;;;;;;;;;;;;;;;23.24;44.23;100297.03;106546;1276;125130;-66
2022/06/04 10:57:30;;;;;;;;;;;;;;;23.05;44.78;100296.48;106129;1276;112609;-66
2022/06/04 11:00:01;;;;;;;;;;;;;;;23.00;45.02;100293.23;106063;1276;108841;-65
2022/06/04 11:02:35;;;;;;;;;;;;;;;23.01;45.02;100290.50;105919;1276;124502;-66
2022/06/04 11:05:06;;;;;;;;;;;;;;;23.03;45.01;100285.52;106020;1277;97880;-67
2022/06/04 11:07:37;;;;;;;;;;;;;;;23.06;45.05;100283.62;106024;1276;124292;-66
2022/06/04 11:10:06;;;;;;;;;;;;;;;23.11;44.92;100280.94;106057;1276;112565;-64
2022/06/04 11:12:38;;;;;;;;;;;;;;;23.16;44.90;100279.41;107349;1276;109023;-65
2022/06/04 11:15:13;;;;;;;;;;;;;;;23.15;44.91;100283.01;107511;1276;109958;-67
2022/06/04 11:17:44;;;;;;;;;;;;;;;23.17;44.89;100280.55;106382;1276;97831;-65
2022/06/04 11:20:12;;;;;;;;;;;;;;;23.22;44.79;100281.08;107323;1276;125792;-66
2022/06/04 11:22:43;;;;;;;;;;;;;;;23.33;44.93;100275.50;106131;1276;112272;-66
2022/06/04 11:25:19;;;;;;;;;;;;;;;23.44;44.87;100270.41;105948;1276;124645;-65
2022/06/04 11:29:02;;;;;;;10.30;7.80;;;;;;;23.68;45.39;100268.46;102705;1309;636859;-66
2022/06/04 11:31:47;;;;;;;12.20;8.30;;;;;;;23.81;44.63;100271.56;105912;1280;137762;-67
2022/06/04 11:34:50;;;;;;;14.60;8.70;;;;;;;23.99;44.42;100269.61;106240;1283;94533;-69
2022/06/04 11:37:34;;;;;;;12.20;8.40;;;;;;;24.20;43.71;100272.27;106994;1281;137499;-69
2022/06/04 11:40:21;;;;;;;10.20;7.50;;;;;;;24.43;43.56;100270.36;107061;1283;107492;-69
2022/06/04 11:42:58;;;;;;;10.40;8.40;;;;;;;24.84;43.36;100268.55;106904;1279;189601;-68
2022/06/04 11:45:55;;;;;;;13.60;7.70;;;;;;;25.25;42.96;100267.99;107342;1280;92726;-69
2022/06/04 11:48:40;;;;;;;15.20;8.10;;;;;;;25.75;42.18;100262.06;107345;1280;92651;-69
2022/06/04 11:51:26;;;;;;;9.80;7.90;;;;;;;26.20;41.88;100255.40;106158;1280;107374;-70
2022/06/04 11:54:02;;;;;;;11.20;6.80;;;;;;;26.38;41.10;100245.59;106450;1279;108803;-69
2022/06/04 11:56:47;;;;;;;12.30;7.50;;;;;;;26.68;41.09;100239.98;106197;1277;137537;-68
2022/06/04 11:59:32;;;;;;;9.40;7.30;;;;;;;27.09;40.70;100236.22;106173;1274;95171;-68
2022/06/04 12:02:18;;;;;;;7.00;6.10;;;;;;;27.50;40.12;100233.39;106089;1277;137492;-67
2022/06/04 12:04:57;;;;;;;10.20;5.80;;;;;;;27.71;39.18;100231.43;106339;1276;109724;-67
2022/06/04 12:07:38;;;;;;;9.10;5.30;;;;;;;27.68;38.13;100228.14;106250;1274;137349;-68
2022/06/04 12:10:23;;;;;;;10.90;5.60;;;;;;;27.72;38.31;100227.61;106277;1274;108722;-68
2022/06/04 12:13:02;;;;;;;9.00;5.50;;;;;;;27.77;38.25;100227.46;106127;1274;137524;-68
2022/06/04 12:15:40;;;;;;;8.10;5.30;;;;;;;27.80;38.42;100231.02;106783;1273;95144;-69
2022/06/04 12:18:27;;;;;;;10.30;5.50;;;;;;;27.89;38.37;100232.56;106858;1271;109993;-69
2022/06/04 12:24:16;;;;;;;7.00;4.60;;;;;;;28.33;37.74;100224.11;106873;1274;107752;-69
2022/06/04 12:26:49;;;;;;;6.50;4.70;;;;;;;28.69;36.74;100217.56;107419;1273;137287;-68
2022/06/04 12:29:36;;;;;;;9.60;5.00;;;;;;;28.93;36.62;100218.97;107151;1274;94411;-68
2022/06/04 12:32:29;;;;;;;7.00;4.90;;;;;;;28.98;35.54;100223.27;106776;1274;137011;-68
2022/06/04 12:35:21;;;;;;;9.50;4.60;;;;;;;28.90;35.48;100223.56;106994;1270;108874;-69
2022/06/04 12:37:58;;;;;;;9.10;4.20;;;;;;;28.95;35.66;100225.56;106905;1271;137363;-68
2022/06/04 12:40:37;;;;;;;10.20;4.60;;;;;;;29.05;35.28;100228.69;106601;1271;95146;-69
2022/06/04 12:43:23;;;;;;;7.80;4.40;;;;;;;28.91;34.39;100225.20;107306;1271;137344;-69
2022/06/04 12:46:08;;;;;;;7.40;4.30;;;;;;;28.74;34.09;100224.03;106900;1270;110872;-70
2022/06/04 12:49:01;;;;;;;10.40;5.30;;;;;;;28.63;33.99;100220.40;106558;1271;108410;-69